sensor_id;sensor_type;location;lat;lon;timestamp;pressure;altitude;pressure_sealevel;temperature;humidity
47054;BME280;32811;52.382;5.270;2023-08-20T00:01:53;102121.66;;;15.69;100.00
47054;BME280;32811;52.382;5.270;2023-08-20T00:04:23;102125.16;;;15.71;100.00
47054;BME280;32811;52.382;5.270;2023-08-20T00:06:52;102116.44;;;15.66;100.00
47054;BME280;32811;52.382;5.270;2023-08-20T00:09:18;102132.94;;;15.68;100.00
47054;BME280;32811;52.382;5.270;2023-08-20T00:11:45;102142.44;;;15.63;100.00
47054;BME280;32811;52.382;5.270;2023-08-20T00:14:16;102134.63;;;15.60;100.00
47054;BME280;32811;52.382;5.270;2023-08-20T00:16:43;102133.75;;;15.57;100.00
47054;BME280;32811;52.382;5.270;2023-08-20T00:19:10;102137.22;;;15.56;100.00
47054;BME280;32811;52.382;5.270;2023-08-20T00:21:42;102138.09;;;15.60;100.00
47054;BME280;32811;52.382;5.270;2023-08-20T00:24:11;102133.78;;;15.64;100.00
47054;BME280;32811;52.382;5.270;2023-08-20T00:26:38;102132.94;;;15.68;100.00
47054;BME280;32811;52.382;5.270;2023-08-20T00:29:05;102146.00;;;15.72;100.00
47054;BME280;32811;52.382;5.270;2023-08-20T00:31:32;102157.28;;;15.73;100.00
47054;BME280;32811;52.382;5.270;2023-08-20T00:33:58;102162.47;;;15.73;100.00
47054;BME280;32811;52.382;5.270;2023-08-20T00:36:32;102159.84;;;15.71;100.00
47054;BME280;32811;52.382;5.270;2023-08-20T00:38:59;102155.53;;;15.78;100.00
47054;BME280;32811;52.382;5.270;2023-08-20T00:41:26;102154.69;;;15.81;100.00
47054;BME280;32811;52.382;5.270;2023-08-20T00:43:52;102156.44;;;15.89;100.00
47054;BME280;32811;52.382;5.270;2023-08-20T00:46:19;102157.34;;;15.91;100.00
47054;BME280;32811;52.382;5.270;2023-08-20T00:48:46;102151.25;;;15.94;100.00
47054;BME280;32811;52.382;5.270;2023-08-20T00:51:12;102155.63;;;15.96;100.00
47054;BME280;32811;52.382;5.270;2023-08-20T00:53:39;102159.06;;;15.94;100.00
47054;BME280;32811;52.382;5.270;2023-08-20T00:56:06;102159.94;;;15.93;100.00
47054;BME280;32811;52.382;5.270;2023-08-20T00:58:33;102158.22;;;15.92;100.00
47054;BME280;32811;52.382;5.270;2023-08-20T01:01:00;102170.38;;;15.97;100.00
47054;BME280;32811;52.382;5.270;2023-08-20T01:03:26;102179.91;;;15.95;100.00
47054;BME280;32811;52.382;5.270;2023-08-20T01:06:04;102185.97;;;15.91;100.00
47054;BME280;32811;52.382;5.270;2023-08-20T01:08:41;102180.81;;;15.97;100.00
47054;BME280;32811;52.382;5.270;2023-08-20T01:11:21;102180.81;;;15.97;100.00
47054;BME280;32811;52.382;5.270;2023-08-20T01:13:54;102185.16;;;16.00;100.00
47054;BME280;32811;52.382;5.270;2023-08-20T01:16:21;102186.03;;;15.99;100.00
47054;BME280;32811;52.382;5.270;2023-08-20T01:18:48;102185.16;;;15.97;100.00
47054;BME280;32811;52.382;5.270;2023-08-20T01:21:31;102189.47;;;15.98;100.00
47054;BME280;32811;52.382;5.270;2023-08-20T01:24:22;102178.19;;;15.94;100.00
47054;BME280;32811;52.382;5.270;2023-08-20T01:29:55;102199.84;;;15.89;100.00
47054;BME280;32811;52.382;5.270;2023-08-20T01:32:23;102192.03;;;15.84;100.00
47054;BME280;32811;52.382;5.270;2023-08-20T01:35:00;102191.16;;;15.79;100.00
47054;BME280;32811;52.382;5.270;2023-08-20T01:37:28;102200.69;;;15.77;100.00
47054;BME280;32811;52.382;5.270;2023-08-20T01:39:54;102216.31;;;15.77;100.00
47054;BME280;32811;52.382;5.270;2023-08-20T01:42:21;102218.88;;;15.72;100.00
47054;BME280;32811;52.382;5.270;2023-08-20T01:44:47;102231.84;;;15.69;100.00
47054;BME280;32811;52.382;5.270;2023-08-20T01:47:14;102228.34;;;15.61;100.00
47054;BME280;32811;52.382;5.270;2023-08-20T01:49:41;102222.28;;;15.61;100.00
47054;BME280;32811;52.382;5.270;2023-08-20T01:52:08;102217.03;;;15.54;100.00
47054;BME280;32811;52.382;5.270;2023-08-20T01:54:34;102224.84;;;15.59;100.00
47054;BME280;32811;52.382;5.270;2023-08-20T01:57:01;102216.13;;;15.52;100.00
47054;BME280;32811;52.382;5.270;2023-08-20T01:59:28;102213.50;;;15.51;100.00
47054;BME280;32811;52.382;5.270;2023-08-20T02:01:55;102207.44;;;15.49;100.00
47054;BME280;32811;52.382;5.270;2023-08-20T02:04:21;102209.19;;;15.53;100.00
47054;BME280;32811;52.382;5.270;2023-08-20T02:06:48;102210.06;;;15.50;100.00
47054;BME280;32811;52.382;5.270;2023-08-20T02:09:15;102203.09;;;15.46;100.00
47054;BME280;32811;52.382;5.270;2023-08-20T02:11:41;102206.53;;;15.41;100.00
47054;BME280;32811;52.382;5.270;2023-08-20T02:14:08;102211.72;;;15.39;100.00
47054;BME280;32811;52.382;5.270;2023-08-20T02:16:34;102213.41;;;15.35;100.00
47054;BME280;32811;52.382;5.270;2023-08-20T02:19:01;102206.47;;;15.33;100.00
47054;BME280;32811;52.382;5.270;2023-08-20T02:21:29;102200.38;;;15.31;100.00
47054;BME280;32811;52.382;5.270;2023-08-20T02:23:55;102198.66;;;15.30;100.00
47054;BME280;32811;52.382;5.270;2023-08-20T02:26:22;102187.34;;;15.26;100.00
47054;BME280;32811;52.382;5.270;2023-08-20T02:28:49;102185.59;;;15.24;100.00
47054;BME280;32811;52.382;5.270;2023-08-20T02:31:15;102189.91;;;15.22;100.00
47054;BME280;32811;52.382;5.270;2023-08-20T02:33:42;102201.19;;;15.19;100.00
47054;BME280;32811;52.382;5.270;2023-08-20T02:36:08;102201.16;;;15.18;100.00
47054;BME280;32811;52.382;5.270;2023-08-20T02:38:35;102188.13;;;15.13;100.00
47054;BME280;32811;52.382;5.270;2023-08-20T02:41:02;102185.56;;;15.18;100.00
47054;BME280;32811;52.382;5.270;2023-08-20T02:43:29;102194.22;;;15.18;100.00
47054;BME280;32811;52.382;5.270;2023-08-20T02:45:56;102176.84;;;15.09;100.00
47054;BME280;32811;52.382;5.270;2023-08-20T02:48:23;102186.34;;;15.09;100.00
47054;BME280;32811;52.382;5.270;2023-08-20T02:50:53;102188.06;;;15.07;100.00
47054;BME280;32811;52.382;5.270;2023-08-20T02:53:21;102180.25;;;15.02;100.00
47054;BME280;32811;52.382;5.270;2023-08-20T02:55:48;102199.31;;;15.01;100.00
47054;BME280;32811;52.382;5.270;2023-08-20T02:58:15;102197.53;;;14.97;100.00
47054;BME280;32811;52.382;5.270;2023-08-20T03:00:41;102198.38;;;14.91;100.00
47054;BME280;32811;52.382;5.270;2023-08-20T03:03:11;102198.38;;;14.91;100.00
47054;BME280;32811;52.382;5.270;2023-08-20T03:05:38;102194.88;;;14.91;100.00
47054;BME280;32811;52.382;5.270;2023-08-20T03:08:06;102189.66;;;14.88;100.00
47054;BME280;32811;52.382;5.270;2023-08-20T03:10:34;102186.19;;;14.86;100.00
47054;BME280;32811;52.382;5.270;2023-08-20T03:13:01;102192.25;;;14.85;100.00
47054;BME280;32811;52.382;5.270;2023-08-20T03:15:28;102197.44;;;14.83;100.00
47054;BME280;32811;52.382;5.270;2023-08-20T03:17:55;102200.84;;;14.79;100.00
47054;BME280;32811;52.382;5.270;2023-08-20T03:20:22;102201.69;;;14.73;100.00
47054;BME280;32811;52.382;5.270;2023-08-20T03:22:49;102203.44;;;14.76;100.00
47054;BME280;32811;52.382;5.270;2023-08-20T03:25:15;102206.03;;;14.74;100.00
47054;BME280;32811;52.382;5.270;2023-08-20T03:27:42;102219.00;;;14.74;100.00
47054;BME280;32811;52.382;5.270;2023-08-20T03:30:09;102211.19;;;14.70;100.00
47054;BME280;32811;52.382;5.270;2023-08-20T03:32:35;102216.41;;;14.74;100.00
47054;BME280;32811;52.382;5.270;2023-08-20T03:35:02;102221.63;;;14.78;100.00
47054;BME280;32811;52.382;5.270;2023-08-20T03:37:29;102229.47;;;14.81;100.00
47054;BME280;32811;52.382;5.270;2023-08-20T03:39:56;102230.41;;;14.87;100.00
47054;BME280;32811;52.382;5.270;2023-08-20T03:42:22;102220.84;;;14.86;100.00
47054;BME280;32811;52.382;5.270;2023-08-20T03:44:49;102226.09;;;14.92;100.00
47054;BME280;32811;52.382;5.270;2023-08-20T03:47:15;102240.03;;;14.99;100.00
47054;BME280;32811;52.382;5.270;2023-08-20T03:49:47;102233.91;;;14.95;100.00
47054;BME280;32811;52.382;5.270;2023-08-20T03:52:14;102238.31;;;14.98;100.00
47054;BME280;32811;52.382;5.270;2023-08-20T03:54:41;102243.50;;;14.98;100.00
47054;BME280;32811;52.382;5.270;2023-08-20T03:57:07;102241.75;;;14.99;100.00
47054;BME280;32811;52.382;5.270;2023-08-20T03:59:34;102238.25;;;14.92;100.00
47054;BME280;32811;52.382;5.270;2023-08-20T04:02:01;102246.94;;;14.94;100.00
47054;BME280;32811;52.382;5.270;2023-08-20T04:04:27;102249.53;;;14.94;100.00
47054;BME280;32811;52.382;5.270;2023-08-20T04:06:54;102246.88;;;14.89;100.00
47054;BME280;32811;52.382;5.270;2023-08-20T04:09:21;102248.56;;;14.86;100.00
47054;BME280;32811;52.382;5.270;2023-08-20T04:11:48;102242.47;;;14.82;100.00
47054;BME280;32811;52.382;5.270;2023-08-20T04:14:15;102245.91;;;14.80;100.00
47054;BME280;32811;52.382;5.270;2023-08-20T04:16:42;102259.81;;;14.80;100.00
47054;BME280;32811;52.382;5.270;2023-08-20T04:19:08;102248.44;;;14.70;100.00
47054;BME280;32811;52.382;5.270;2023-08-20T04:21:35;102253.69;;;14.73;100.00
47054;BME280;32811;52.382;5.270;2023-08-20T04:24:02;102248.41;;;14.69;100.00
47054;BME280;32811;52.382;5.270;2023-08-20T04:26:29;102251.88;;;14.71;100.00
47054;BME280;32811;52.382;5.270;2023-08-20T04:28:56;102251.06;;;14.72;100.00
47054;BME280;32811;52.382;5.270;2023-08-20T04:31:22;102257.97;;;14.73;100.00
47054;BME280;32811;52.382;5.270;2023-08-20T04:33:49;102259.69;;;14.69;100.00
47054;BME280;32811;52.382;5.270;2023-08-20T04:36:16;102258.81;;;14.67;100.00
47054;BME280;32811;52.382;5.270;2023-08-20T04:38:43;102258.75;;;14.64;100.00
47054;BME280;32811;52.382;5.270;2023-08-20T04:41:09;102261.38;;;14.66;100.00
47054;BME280;32811;52.382;5.270;2023-08-20T04:43:36;102256.13;;;14.61;100.00
47054;BME280;32811;52.382;5.270;2023-08-20T04:46:02;102258.72;;;14.58;100.00
47054;BME280;32811;52.382;5.270;2023-08-20T04:48:29;102259.53;;;14.57;100.00
47054;BME280;32811;52.382;5.270;2023-08-20T04:50:56;102262.16;;;14.59;100.00
47054;BME280;32811;52.382;5.270;2023-08-20T04:53:23;102263.91;;;14.60;100.00
47054;BME280;32811;52.382;5.270;2023-08-20T04:55:49;102260.31;;;14.53;100.00
47054;BME280;32811;52.382;5.270;2023-08-20T04:58:16;102250.81;;;14.52;100.00
47054;BME280;32811;52.382;5.270;2023-08-20T05:00:43;102263.91;;;14.60;100.00
47054;BME280;32811;52.382;5.270;2023-08-20T05:03:10;102271.69;;;14.60;100.00
47054;BME280;32811;52.382;5.270;2023-08-20T05:05:36;102262.16;;;14.59;100.00
47054;BME280;32811;52.382;5.270;2023-08-20T05:08:04;102263.03;;;14.59;100.00
47054;BME280;32811;52.382;5.270;2023-08-20T05:10:30;102250.94;;;14.61;100.00
47054;BME280;32811;52.382;5.270;2023-08-20T05:12:57;102249.19;;;14.59;100.00
47054;BME280;32811;52.382;5.270;2023-08-20T05:15:24;102261.34;;;14.64;100.00
47054;BME280;32811;52.382;5.270;2023-08-20T05:17:51;102258.81;;;14.67;100.00
47054;BME280;32811;52.382;5.270;2023-08-20T05:20:17;102248.41;;;14.67;100.00
47054;BME280;32811;52.382;5.270;2023-08-20T05:22:44;102244.97;;;14.73;100.00
47054;BME280;32811;52.382;5.270;2023-08-20T05:25:11;102260.66;;;14.81;100.00
47054;BME280;32811;52.382;5.270;2023-08-20T05:27:37;102254.72;;;14.94;100.00
47054;BME280;32811;52.382;5.270;2023-08-20T05:30:04;102258.41;;;15.21;100.00
47054;BME280;32811;52.382;5.270;2023-08-20T05:32:31;102256.88;;;15.50;100.00
47054;BME280;32811;52.382;5.270;2023-08-20T05:34:58;102259.56;;;15.64;100.00
47054;BME280;32811;52.382;5.270;2023-08-20T05:37:24;102263.22;;;15.91;100.00
47054;BME280;32811;52.382;5.270;2023-08-20T05:39:51;102255.50;;;16.11;100.00
47054;BME280;32811;52.382;5.270;2023-08-20T05:42:18;102245.16;;;16.34;100.00
47054;BME280;32811;52.382;5.270;2023-08-20T05:44:44;102248.78;;;16.93;100.00
47054;BME280;32811;52.382;5.270;2023-08-20T05:47:11;102246.16;;;17.37;100.00
47054;BME280;32811;52.382;5.270;2023-08-20T05:49:38;102246.94;;;17.78;100.00
47054;BME280;32811;52.382;5.270;2023-08-20T05:52:04;102240.75;;;18.10;100.00
47054;BME280;32811;52.382;5.270;2023-08-20T05:54:31;102228.38;;;18.45;100.00
47054;BME280;32811;52.382;5.270;2023-08-20T05:56:58;102242.13;;;18.78;100.00
47054;BME280;32811;52.382;5.270;2023-08-20T05:59:25;102241.13;;;18.95;100.00
47054;BME280;32811;52.382;5.270;2023-08-20T06:01:53;102237.34;;;19.26;100.00
47054;BME280;32811;52.382;5.270;2023-08-20T06:04:20;102238.75;;;19.61;100.00
47054;BME280;32811;52.382;5.270;2023-08-20T06:06:46;102240.28;;;19.85;100.00
47054;BME280;32811;52.382;5.270;2023-08-20T06:09:13;102234.91;;;19.95;100.00
47054;BME280;32811;52.382;5.270;2023-08-20T06:11:40;102238.91;;;20.23;100.00
47054;BME280;32811;52.382;5.270;2023-08-20T06:14:07;102231.00;;;20.25;100.00
47054;BME280;32811;52.382;5.270;2023-08-20T06:16:33;102233.47;;;20.39;100.00
47054;BME280;32811;52.382;5.270;2023-08-20T06:19:00;102235.09;;;20.46;100.00
47054;BME280;32811;52.382;5.270;2023-08-20T06:21:30;102240.50;;;20.33;100.00
47054;BME280;32811;52.382;5.270;2023-08-20T06:23:56;102236.69;;;20.58;100.00
47054;BME280;32811;52.382;5.270;2023-08-20T06:26:23;102237.00;;;20.93;100.00
47054;BME280;32811;52.382;5.270;2023-08-20T06:28:49;102236.09;;;20.96;100.00
47054;BME280;32811;52.382;5.270;2023-08-20T06:31:16;102237.88;;;20.94;100.00
47054;BME280;32811;52.382;5.270;2023-08-20T06:33:43;102238.75;;;20.94;100.00
47054;BME280;32811;52.382;5.270;2023-08-20T06:36:09;102241.22;;;21.04;100.00
47054;BME280;32811;52.382;5.270;2023-08-20T06:38:36;102229.88;;;21.03;100.00
47054;BME280;32811;52.382;5.270;2023-08-20T06:41:03;102241.06;;;21.13;100.00
47054;BME280;32811;52.382;5.270;2023-08-20T06:43:29;102245.88;;;21.38;100.00
47054;BME280;32811;52.382;5.270;2023-08-20T06:45:56;102230.22;;;21.31;100.00
47054;BME280;32811;52.382;5.270;2023-08-20T06:48:23;102232.00;;;21.29;100.00
47054;BME280;32811;52.382;5.270;2023-08-20T06:50:51;102234.16;;;21.57;100.00
47054;BME280;32811;52.382;5.270;2023-08-20T06:53:17;102238.78;;;21.46;100.00
47054;BME280;32811;52.382;5.270;2023-08-20T06:55:44;102241.50;;;21.38;100.00
47054;BME280;32811;52.382;5.270;2023-08-20T06:58:11;102236.13;;;21.46;100.00
47054;BME280;32811;52.382;5.270;2023-08-20T07:00:37;102237.38;;;21.73;100.00
47054;BME280;32811;52.382;5.270;2023-08-20T07:03:04;102235.97;;;21.55;100.00
47054;BME280;32811;52.382;5.270;2023-08-20T07:05:31;102241.41;;;21.88;100.00
47054;BME280;32811;52.382;5.270;2023-08-20T07:07:57;102233.72;;;21.80;100.00
47054;BME280;32811;52.382;5.270;2023-08-20T07:10:24;102235.88;;;21.60;100.00
47054;BME280;32811;52.382;5.270;2023-08-20T07:12:51;102244.31;;;21.75;100.00
47054;BME280;32811;52.382;5.270;2023-08-20T07:15:17;102249.75;;;21.66;100.00
47054;BME280;32811;52.382;5.270;2023-08-20T07:17:44;102254.91;;;21.72;100.00
47054;BME280;32811;52.382;5.270;2023-08-20T07:20:12;102257.09;;;21.92;100.00
47054;BME280;32811;52.382;5.270;2023-08-20T07:22:39;102261.56;;;21.90;100.00
47054;BME280;32811;52.382;5.270;2023-08-20T07:25:06;102255.22;;;21.99;100.00
47054;BME280;32811;52.382;5.270;2023-08-20T07:27:33;102255.69;;;22.20;100.00
47054;BME280;32811;52.382;5.270;2023-08-20T07:30:00;102249.59;;;22.16;100.00
47054;BME280;32811;52.382;5.270;2023-08-20T07:32:27;102252.34;;;22.11;100.00
47054;BME280;32811;52.382;5.270;2023-08-20T07:34:53;102248.03;;;22.07;100.00
47054;BME280;32811;52.382;5.270;2023-08-20T07:37:20;102254.06;;;22.12;100.00
47054;BME280;32811;52.382;5.270;2023-08-20T07:39:47;102252.03;;;22.27;100.00
47054;BME280;32811;52.382;5.270;2023-08-20T07:42:13;102262.44;;;22.33;100.00
47054;BME280;32811;52.382;5.270;2023-08-20T07:44:40;102270.28;;;22.34;100.00
47054;BME280;32811;52.382;5.270;2023-08-20T07:47:07;102269.28;;;22.40;100.00
47054;BME280;32811;52.382;5.270;2023-08-20T07:49:34;102264.03;;;22.40;100.00
47054;BME280;32811;52.382;5.270;2023-08-20T07:52:00;102271.50;;;22.57;100.00
47054;BME280;32811;52.382;5.270;2023-08-20T07:54:27;102270.53;;;22.63;100.00
47054;BME280;32811;52.382;5.270;2023-08-20T07:56:55;102271.38;;;22.63;100.00
47054;BME280;32811;52.382;5.270;2023-08-20T07:59:22;102268.47;;;22.75;100.00
47054;BME280;32811;52.382;5.270;2023-08-20T08:01:48;102276.28;;;22.78;100.00
47054;BME280;32811;52.382;5.270;2023-08-20T08:04:15;102277.38;;;22.70;100.00
47054;BME280;32811;52.382;5.270;2023-08-20T08:06:41;102273.78;;;22.74;100.00
47054;BME280;32811;52.382;5.270;2023-08-20T08:09:18;102287.19;;;22.62;100.00
47054;BME280;32811;52.382;5.270;2023-08-20T08:11:46;102287.84;;;22.73;100.00
47054;BME280;32811;52.382;5.270;2023-08-20T08:14:13;102288.06;;;23.01;100.00
47054;BME280;32811;52.382;5.270;2023-08-20T08:16:40;102290.66;;;23.03;100.00
47054;BME280;32811;52.382;5.270;2023-08-20T08:19:06;102297.53;;;23.08;100.00
47054;BME280;32811;52.382;5.270;2023-08-20T08:21:34;102297.50;;;23.10;100.00
47054;BME280;32811;52.382;5.270;2023-08-20T08:24:00;102309.06;;;23.40;100.00
47054;BME280;32811;52.382;5.270;2023-08-20T08:26:27;102295.03;;;23.04;100.00
47054;BME280;32811;52.382;5.270;2023-08-20T08:28:54;102299.94;;;23.17;100.00
47054;BME280;32811;52.382;5.270;2023-08-20T08:31:20;102301.91;;;23.44;100.00
47054;BME280;32811;52.382;5.270;2023-08-20T08:33:47;102300.19;;;23.42;100.00
47054;BME280;32811;52.382;5.270;2023-08-20T08:36:14;102307.50;;;23.64;100.00
47054;BME280;32811;52.382;5.270;2023-08-20T08:38:43;102298.38;;;23.79;100.00
47054;BME280;32811;52.382;5.270;2023-08-20T08:41:12;102301.09;;;23.76;100.00
47054;BME280;32811;52.382;5.270;2023-08-20T08:43:40;102295.94;;;23.70;100.00
47054;BME280;32811;52.382;5.270;2023-08-20T08:46:12;102298.50;;;23.73;100.00
47054;BME280;32811;52.382;5.270;2023-08-20T08:48:44;102306.25;;;23.80;100.00
47054;BME280;32811;52.382;5.270;2023-08-20T08:51:14;102301.59;;;23.56;100.00
47054;BME280;32811;52.382;5.270;2023-08-20T08:53:43;102309.03;;;23.73;100.00
47054;BME280;32811;52.382;5.270;2023-08-20T08:56:11;102298.28;;;23.48;100.00
47054;BME280;32811;52.382;5.270;2023-08-20T08:58:37;102304.88;;;23.64;100.00
47054;BME280;32811;52.382;5.270;2023-08-20T09:01:04;102280.03;;;23.73;100.00
47054;BME280;32811;52.382;5.270;2023-08-20T09:03:31;102304.78;;;24.00;100.00
47054;BME280;32811;52.382;5.270;2023-08-20T09:06:00;102295.16;;;23.99;100.00
47054;BME280;32811;52.382;5.270;2023-08-20T09:08:30;102299.44;;;24.03;100.00
47054;BME280;32811;52.382;5.270;2023-08-20T09:11:00;102305.31;;;24.13;100.00
47054;BME280;32811;52.382;5.270;2023-08-20T09:13:36;102303.47;;;24.16;100.00
47054;BME280;32811;52.382;5.270;2023-08-20T09:16:08;102310.75;;;24.07;100.00
47054;BME280;32811;52.382;5.270;2023-08-20T09:18:42;102308.63;;;24.19;100.00
47054;BME280;32811;52.382;5.270;2023-08-20T09:21:11;102303.19;;;24.26;100.00
47054;BME280;32811;52.382;5.270;2023-08-20T09:23:39;102308.72;;;24.16;100.00
47054;BME280;32811;52.382;5.270;2023-08-20T09:26:07;102305.66;;;24.32;100.00
47054;BME280;32811;52.382;5.270;2023-08-20T09:28:44;102301.75;;;24.43;100.00
47054;BME280;32811;52.382;5.270;2023-08-20T09:31:12;102300.91;;;24.43;100.00
47054;BME280;32811;52.382;5.270;2023-08-20T09:34:12;102315.94;;;24.41;100.00
47054;BME280;32811;52.382;5.270;2023-08-20T09:36:38;102321.47;;;24.32;100.00
47054;BME280;32811;52.382;5.270;2023-08-20T09:39:05;102313.34;;;24.38;100.00
47054;BME280;32811;52.382;5.270;2023-08-20T09:41:33;102318.38;;;24.47;100.00
47054;BME280;32811;52.382;5.270;2023-08-20T09:44:02;102316.09;;;24.64;100.00
47054;BME280;32811;52.382;5.270;2023-08-20T09:46:31;102317.25;;;24.84;100.00
47054;BME280;32811;52.382;5.270;2023-08-20T09:48:58;102311.13;;;24.83;100.00
47054;BME280;32811;52.382;5.270;2023-08-20T09:51:26;102326.25;;;24.78;100.00
47054;BME280;32811;52.382;5.270;2023-08-20T09:56:30;102309.00;;;24.67;100.00
47054;BME280;32811;52.382;5.270;2023-08-20T09:58:58;102321.59;;;24.58;100.00
47054;BME280;32811;52.382;5.270;2023-08-20T10:01:25;102318.69;;;24.66;100.00
47054;BME280;32811;52.382;5.270;2023-08-20T10:03:53;102315.16;;;24.67;100.00
47054;BME280;32811;52.382;5.270;2023-08-20T10:06:20;102310.16;;;24.86;100.00
47054;BME280;32811;52.382;5.270;2023-08-20T10:08:47;102315.56;;;25.10;100.00
47054;BME280;32811;52.382;5.270;2023-08-20T10:11:15;102313.97;;;25.04;100.00
47054;BME280;32811;52.382;5.270;2023-08-20T10:13:43;102327.03;;;25.09;100.00
47054;BME280;32811;52.382;5.270;2023-08-20T10:16:13;102331.16;;;24.89;100.00
47054;BME280;32811;52.382;5.270;2023-08-20T10:18:40;102309.00;;;23.74;100.00
47054;BME280;32811;52.382;5.270;2023-08-20T10:21:08;102334.06;;;23.58;100.00
47054;BME280;32811;52.382;5.270;2023-08-20T10:23:41;102323.28;;;23.66;100.00
47054;BME280;32811;52.382;5.270;2023-08-20T10:26:10;102326.38;;;24.14;100.00
47054;BME280;32811;52.382;5.270;2023-08-20T10:28:40;102323.50;;;24.53;100.00
47054;BME280;32811;52.382;5.270;2023-08-20T10:31:11;102322.94;;;24.72;100.00
47054;BME280;32811;52.382;5.270;2023-08-20T10:33:49;102319.63;;;24.65;100.00
47054;BME280;32811;52.382;5.270;2023-08-20T10:36:20;102317.34;;;24.53;100.00
47054;BME280;32811;52.382;5.270;2023-08-20T10:38:52;102318.59;;;24.10;100.00
47054;BME280;32811;52.382;5.270;2023-08-20T10:41:28;102320.28;;;24.42;100.00
47054;BME280;32811;52.382;5.270;2023-08-20T10:43:59;102320.13;;;24.48;100.00
47054;BME280;32811;52.382;5.270;2023-08-20T10:46:28;102316.25;;;24.60;100.00
47054;BME280;32811;52.382;5.270;2023-08-20T10:48:59;102316.47;;;24.80;100.00
47054;BME280;32811;52.382;5.270;2023-08-20T10:51:29;102324.28;;;24.85;100.00
47054;BME280;32811;52.382;5.270;2023-08-20T10:56:42;102308.31;;;24.88;100.00
47054;BME280;32811;52.382;5.270;2023-08-20T10:59:21;102318.41;;;24.75;100.00
47054;BME280;32811;52.382;5.270;2023-08-20T11:01:50;102313.78;;;24.82;100.00
47054;BME280;32811;52.382;5.270;2023-08-20T11:04:22;102310.09;;;24.30;100.00
47054;BME280;32811;52.382;5.270;2023-08-20T11:06:58;102309.66;;;24.45;100.00
47054;BME280;32811;52.382;5.270;2023-08-20T11:09:27;102311.34;;;24.46;100.00
47054;BME280;32811;52.382;5.270;2023-08-20T11:11:55;102302.59;;;24.74;100.00
47054;BME280;32811;52.382;5.270;2023-08-20T11:14:22;102300.56;;;24.83;100.00
47054;BME280;32811;52.382;5.270;2023-08-20T11:16:49;102309.19;;;24.89;100.00
47054;BME280;32811;52.382;5.270;2023-08-20T11:19:21;102309.13;;;24.90;100.00
47054;BME280;32811;52.382;5.270;2023-08-20T11:21:48;102308.31;;;24.88;100.00
47054;BME280;32811;52.382;5.270;2023-08-20T11:24:15;102302.41;;;24.80;100.00
47054;BME280;32811;52.382;5.270;2023-08-20T11:26:43;102320.22;;;24.45;100.00
47054;BME280;32811;52.382;5.270;2023-08-20T11:29:11;102313.72;;;24.57;100.00
47054;BME280;32811;52.382;5.270;2023-08-20T11:31:39;102310.66;;;24.69;100.00
47054;BME280;32811;52.382;5.270;2023-08-20T11:34:07;102301.84;;;24.70;100.00
47054;BME280;32811;52.382;5.270;2023-08-20T11:36:38;102316.72;;;24.73;100.00
47054;BME280;32811;52.382;5.270;2023-08-20T11:39:07;102319.56;;;24.37;100.00
47054;BME280;32811;52.382;5.270;2023-08-20T11:41:38;102304.28;;;24.47;100.00
47054;BME280;32811;52.382;5.270;2023-08-20T11:44:05;102308.91;;;24.70;100.00
47054;BME280;32811;52.382;5.270;2023-08-20T11:46:42;102309.97;;;24.92;100.00
47054;BME280;32811;52.382;5.270;2023-08-20T11:49:10;102310.63;;;24.99;100.00
47054;BME280;32811;52.382;5.270;2023-08-20T11:51:39;102306.84;;;25.06;100.00
47054;BME280;32811;52.382;5.270;2023-08-20T11:54:08;102297.63;;;25.19;100.00
47054;BME280;32811;52.382;5.270;2023-08-20T11:56:35;102306.50;;;25.17;100.00
47054;BME280;32811;52.382;5.270;2023-08-20T11:59:02;102299.81;;;25.05;93.49
47054;BME280;32811;52.382;5.270;2023-08-20T12:01:32;102286.41;;;24.84;96.25
47054;BME280;32811;52.382;5.270;2023-08-20T12:04:06;102292.72;;;25.07;100.00
47054;BME280;32811;52.382;5.270;2023-08-20T12:06:35;102297.16;;;25.06;100.00
47054;BME280;32811;52.382;5.270;2023-08-20T12:09:18;102295.13;;;25.15;94.99
47054;BME280;32811;52.382;5.270;2023-08-20T12:11:52;102287.44;;;25.07;91.40
47054;BME280;32811;52.382;5.270;2023-08-20T12:14:22;102299.19;;;24.98;96.53
47054;BME280;32811;52.382;5.270;2023-08-20T12:16:49;102287.22;;;24.86;97.53
47054;BME280;32811;52.382;5.270;2023-08-20T12:19:19;102294.09;;;24.92;100.00
47054;BME280;32811;52.382;5.270;2023-08-20T12:21:46;102301.06;;;24.95;100.00
47054;BME280;32811;52.382;5.270;2023-08-20T12:24:12;102302.66;;;24.42;100.00
47054;BME280;32811;52.382;5.270;2023-08-20T12:26:39;102322.69;;;24.20;100.00
47054;BME280;32811;52.382;5.270;2023-08-20T12:29:07;102313.19;;;24.44;100.00
47054;BME280;32811;52.382;5.270;2023-08-20T12:31:34;102311.34;;;24.76;97.26
47054;BME280;32811;52.382;5.270;2023-08-20T12:34:01;102313.97;;;24.76;100.00
47054;BME280;32811;52.382;5.270;2023-08-20T12:36:29;102312.63;;;24.91;100.00
47054;BME280;32811;52.382;5.270;2023-08-20T12:38:55;102304.75;;;24.89;100.00
47054;BME280;32811;52.382;5.270;2023-08-20T12:41:22;102317.78;;;24.95;100.00
47054;BME280;32811;52.382;5.270;2023-08-20T12:43:49;102315.38;;;24.88;99.38
47054;BME280;32811;52.382;5.270;2023-08-20T12:46:17;102328.81;;;24.80;99.53
47054;BME280;32811;52.382;5.270;2023-08-20T12:48:44;102328.47;;;24.91;100.00
47054;BME280;32811;52.382;5.270;2023-08-20T12:51:10;102318.41;;;25.03;96.79
47054;BME280;32811;52.382;5.270;2023-08-20T12:53:40;102320.88;;;24.81;100.00